createdAt,value
2022-08-02T00:00:56.288Z,19.10
2022-08-02T00:01:58.065Z,19.05
2022-08-02T00:02:59.762Z,19.02
2022-08-02T00:04:01.466Z,19.02
2022-08-02T00:05:03.368Z,19.00
2022-08-02T00:06:05.227Z,18.97
2022-08-02T00:07:06.828Z,19.01
2022-08-02T00:08:08.440Z,18.99
2022-08-02T00:09:10.035Z,18.97
2022-08-02T00:10:12.835Z,18.95
2022-08-02T00:11:14.457Z,18.91
2022-08-02T00:12:16.202Z,18.89
2022-08-02T00:13:17.831Z,18.91
2022-08-02T00:14:19.445Z,18.89
2022-08-02T00:15:20.980Z,18.89
2022-08-02T00:16:22.588Z,18.85
2022-08-02T00:17:39.399Z,18.93
2022-08-02T00:18:41.394Z,18.97
2022-08-02T00:19:43.113Z,18.95
2022-08-02T00:20:44.723Z,18.95
2022-08-02T00:21:46.398Z,18.95
2022-08-02T00:22:48.022Z,18.92
2022-08-02T00:24:27.576Z,18.89
2022-08-02T00:25:11.283Z,18.90
2022-08-02T00:26:12.829Z,18.90
2022-08-02T00:27:14.400Z,18.86
2022-08-02T00:28:16.661Z,18.91
2022-08-02T00:29:22.308Z,18.92
2022-08-02T00:30:23.922Z,18.93
2022-08-02T00:31:25.498Z,18.90
2022-08-02T00:32:27.273Z,18.95
2022-08-02T00:34:26.992Z,18.98
2022-08-02T00:34:50.939Z,19.00
2022-08-02T00:35:52.790Z,19.01
2022-08-02T00:36:54.452Z,19.00
2022-08-02T00:37:56.077Z,19.04
2022-08-02T00:38:57.731Z,19.04
2022-08-02T00:39:59.394Z,19.03
2022-08-02T00:41:01.026Z,19.01
2022-08-02T00:42:03.617Z,19.01
2022-08-02T00:43:08.196Z,19.00
2022-08-02T00:44:09.780Z,19.00
2022-08-02T00:45:14.324Z,18.98
2022-08-02T00:46:17.334Z,18.96
2022-08-02T00:47:19.705Z,18.97
2022-08-02T00:48:21.557Z,18.96
2022-08-02T00:49:23.261Z,18.95
2022-08-02T00:50:26.634Z,18.93
2022-08-02T00:51:28.207Z,18.91
2022-08-02T00:52:29.960Z,18.89
2022-08-02T00:53:32.406Z,18.90
2022-08-02T00:54:34.155Z,18.89
2022-08-02T00:55:37.352Z,18.95
2022-08-02T00:56:39.014Z,18.96
2022-08-02T00:57:51.014Z,19.00
2022-08-02T00:58:52.745Z,19.01
2022-08-02T00:59:54.281Z,19.06
2022-08-02T01:01:00.943Z,19.06
2022-08-02T01:02:02.733Z,19.06
2022-08-02T01:03:04.342Z,19.03
2022-08-02T01:04:13.506Z,19.01
2022-08-02T01:05:17.733Z,19.05
2022-08-02T01:06:21.116Z,19.09
2022-08-02T01:07:22.835Z,19.11
2022-08-02T01:08:29.582Z,19.13
2022-08-02T01:09:33.650Z,19.08
2022-08-02T01:10:35.309Z,19.14
2022-08-02T01:11:37.055Z,19.15
2022-08-02T01:12:39.248Z,19.18
2022-08-02T01:13:40.987Z,19.20
2022-08-02T01:14:46.042Z,19.19
2022-08-02T01:15:55.317Z,19.16
2022-08-02T01:17:02.905Z,19.13
2022-08-02T01:18:15.465Z,19.09
2022-08-02T01:19:35.288Z,19.12
2022-08-02T01:20:52.110Z,19.15
2022-08-02T01:22:03.779Z,19.16
2022-08-02T01:23:33.094Z,19.19
2022-08-02T01:25:16.575Z,19.23
2022-08-02T01:26:48.910Z,19.26
2022-08-02T01:28:27.927Z,19.29
2022-08-02T01:29:34.703Z,19.31
2022-08-02T01:30:40.770Z,19.33
2022-08-02T01:31:54.498Z,19.33
2022-08-02T01:33:00.385Z,19.34
2022-08-02T01:34:29.366Z,19.36
2022-08-02T01:35:50.627Z,19.37
2022-08-02T01:37:07.378Z,19.42
2022-08-02T01:38:18.080Z,19.39
2022-08-02T01:39:32.144Z,19.44
2022-08-02T01:40:37.327Z,19.41
2022-08-02T01:41:40.228Z,19.40
2022-08-02T01:42:47.228Z,19.37
2022-08-02T01:43:55.444Z,19.46
2022-08-02T01:44:59.307Z,19.48
2022-08-02T01:46:02.824Z,19.47
2022-08-02T01:47:17.813Z,19.46
2022-08-02T01:48:20.403Z,19.40
2022-08-02T01:49:23.638Z,19.41
2022-08-02T01:50:32.603Z,19.41
2022-08-02T01:51:55.279Z,19.35
2022-08-02T01:53:00.135Z,19.38
2022-08-02T01:54:02.879Z,19.33
2022-08-02T01:55:10.033Z,19.32
2022-08-02T01:56:21.833Z,19.31
2022-08-02T01:57:26.238Z,19.28
2022-08-02T01:58:32.125Z,19.26
2022-08-02T01:59:35.386Z,19.24
2022-08-02T02:00:40.117Z,19.20
2022-08-02T02:01:43.305Z,19.16
2022-08-02T02:02:48.068Z,19.14
2022-08-02T02:03:50.347Z,19.13
2022-08-02T02:04:52.968Z,19.14
2022-08-02T02:05:57.450Z,19.16
2022-08-02T02:07:00.596Z,19.16
2022-08-02T02:08:04.470Z,19.08
2022-08-02T02:09:06.571Z,19.09
2022-08-02T02:10:09.823Z,19.07
2022-08-02T02:12:09.790Z,19.09
2022-08-02T02:12:36.538Z,19.17
2022-08-02T02:13:42.463Z,19.12
2022-08-02T02:14:51.984Z,19.18
2022-08-02T02:15:56.174Z,19.13
2022-08-02T02:17:00.215Z,19.18
2022-08-02T02:18:12.299Z,19.18
2022-08-02T02:19:21.014Z,19.18
2022-08-02T02:20:23.457Z,19.13
2022-08-02T02:21:25.050Z,19.23
2022-08-02T02:22:26.665Z,19.23
2022-08-02T02:23:30.168Z,19.23
2022-08-02T02:24:37.356Z,19.22
2022-08-02T02:25:46.890Z,19.26
2022-08-02T02:26:52.280Z,19.21
2022-08-02T02:28:14.035Z,19.23
2022-08-02T02:29:18.225Z,19.24
2022-08-02T02:30:20.154Z,19.28
2022-08-02T02:31:21.844Z,19.26
2022-08-02T02:32:27.556Z,19.22
2022-08-02T02:33:31.914Z,19.17
2022-08-02T02:34:38.095Z,19.15
2022-08-02T02:35:41.596Z,19.12
2022-08-02T02:36:49.715Z,19.10
2022-08-02T02:37:54.861Z,19.05
2022-08-02T02:39:03.168Z,18.95
2022-08-02T02:40:05.813Z,18.94
2022-08-02T02:41:07.969Z,18.93
2022-08-02T02:42:14.201Z,18.90
2022-08-02T02:43:17.369Z,18.86
2022-08-02T02:44:20.869Z,18.87
2022-08-02T02:45:24.085Z,18.90
2022-08-02T02:46:29.947Z,18.90
2022-08-02T02:47:40.246Z,18.85
2022-08-02T02:48:43.919Z,18.83
2022-08-02T02:49:50.158Z,18.71
2022-08-02T02:50:52.798Z,18.70
2022-08-02T02:51:55.836Z,18.64
2022-08-02T02:52:58.351Z,18.63
2022-08-02T02:54:30.940Z,18.62
2022-08-02T02:55:23.706Z,18.58
2022-08-02T02:56:25.891Z,18.57
2022-08-02T02:57:27.915Z,18.58
2022-08-02T02:58:31.311Z,18.63
2022-08-02T02:59:34.919Z,18.61
2022-08-02T03:00:55.311Z,18.59
2022-08-02T03:01:58.916Z,18.56
2022-08-02T03:03:00.730Z,18.55
2022-08-02T03:04:07.418Z,18.54
2022-08-02T03:05:11.115Z,18.52
2022-08-02T03:06:15.666Z,18.50
2022-08-02T03:07:18.034Z,18.50
2022-08-02T03:08:19.713Z,18.51
2022-08-02T03:09:21.442Z,18.48
2022-08-02T03:10:23.045Z,18.45
2022-08-02T03:11:25.197Z,18.38
2022-08-02T03:12:31.890Z,18.33
2022-08-02T03:13:36.370Z,18.29
2022-08-02T03:14:43.867Z,18.16
2022-08-02T03:15:47.829Z,18.17
2022-08-02T03:16:54.054Z,18.14
2022-08-02T03:17:55.749Z,18.11
2022-08-02T03:18:58.185Z,18.08
2022-08-02T03:19:59.772Z,18.07
2022-08-02T03:21:07.234Z,18.04
2022-08-02T03:22:09.097Z,17.98
2022-08-02T03:23:10.782Z,17.98
2022-08-02T03:24:13.274Z,17.93
2022-08-02T03:25:15.612Z,17.90
2022-08-02T03:26:17.276Z,17.84
2022-08-02T03:27:18.838Z,17.75
2022-08-02T03:28:20.558Z,17.63
2022-08-02T03:29:22.200Z,17.66
2022-08-02T03:30:26.880Z,17.61
2022-08-02T03:31:28.687Z,17.56
2022-08-02T03:32:38.059Z,17.53
2022-08-02T03:33:40.340Z,17.51
2022-08-02T03:34:41.980Z,17.50
2022-08-02T03:35:45.633Z,17.41
2022-08-02T03:36:50.457Z,17.43
2022-08-02T03:37:55.880Z,17.37
2022-08-02T03:38:58.607Z,17.04
2022-08-02T03:40:01.370Z,17.38
2022-08-02T03:41:04.078Z,17.37
2022-08-02T03:42:06.132Z,17.37
2022-08-02T03:43:09.339Z,17.36
2022-08-02T03:44:12.548Z,17.36
2022-08-02T03:45:14.735Z,17.37
2022-08-02T03:46:19.528Z,17.37
2022-08-02T03:47:22.587Z,17.36
2022-08-02T03:48:34.105Z,17.34
2022-08-02T03:49:37.076Z,17.35
2022-08-02T03:50:39.906Z,17.34
2022-08-02T03:51:41.646Z,17.36
2022-08-02T03:52:44.883Z,17.35
2022-08-02T03:53:48.318Z,17.36
2022-08-02T03:54:50.240Z,17.36
2022-08-02T03:55:55.772Z,17.31
2022-08-02T03:56:57.681Z,17.36
2022-08-02T03:57:59.436Z,17.39
2022-08-02T03:59:13.907Z,17.41
2022-08-02T04:00:19.884Z,17.45
2022-08-02T04:01:21.547Z,17.42
2022-08-02T04:02:23.153Z,17.46
2022-08-02T04:03:25.855Z,17.49
2022-08-02T04:04:27.410Z,17.47
2022-08-02T04:05:29.071Z,17.48
2022-08-02T04:06:30.725Z,17.47
2022-08-02T04:08:32.737Z,17.46
2022-08-02T04:08:54.526Z,17.48
2022-08-02T04:09:56.097Z,17.47
2022-08-02T04:11:16.219Z,17.47
2022-08-02T04:12:17.793Z,17.49
2022-08-02T04:13:31.269Z,17.52
2022-08-02T04:14:36.090Z,17.52
2022-08-02T04:15:39.094Z,17.54
2022-08-02T04:16:44.821Z,17.60
2022-08-02T04:17:52.798Z,17.64
2022-08-02T04:18:56.908Z,17.66
2022-08-02T04:20:06.990Z,17.60
2022-08-02T04:21:13.688Z,17.68
2022-08-02T04:22:44.628Z,17.72
2022-08-02T04:23:48.853Z,17.73
2022-08-02T04:24:54.576Z,17.74
2022-08-02T04:25:57.741Z,17.69
2022-08-02T04:27:06.703Z,17.76
2022-08-02T04:28:27.730Z,17.80
2022-08-02T04:29:33.009Z,17.80
2022-08-02T04:30:35.116Z,17.81
2022-08-02T04:31:37.551Z,17.81
2022-08-02T04:32:40.031Z,17.85
2022-08-02T04:33:42.598Z,17.88
2022-08-02T04:35:05.056Z,17.91
2022-08-02T04:36:07.920Z,17.93
2022-08-02T04:37:12.729Z,17.97
2022-08-02T04:38:15.849Z,17.99
2022-08-02T04:39:19.193Z,17.73
2022-08-02T04:40:20.758Z,18.08
2022-08-02T04:41:22.520Z,18.15
2022-08-02T04:42:25.736Z,18.18
2022-08-02T04:43:28.592Z,18.22
2022-08-02T04:44:30.178Z,18.27
2022-08-02T04:45:32.535Z,18.34
2022-08-02T04:46:36.264Z,18.38
2022-08-02T04:48:03.435Z,18.42
2022-08-02T04:48:59.450Z,18.49
2022-08-02T04:50:01.128Z,18.56
2022-08-02T04:51:02.668Z,18.62
2022-08-02T04:52:04.457Z,18.66
2022-08-02T04:53:06.050Z,18.68
2022-08-02T04:54:10.243Z,18.70
2022-08-02T04:55:12.012Z,18.75
2022-08-02T04:56:16.720Z,18.77
2022-08-02T04:57:36.716Z,18.81
2022-08-02T04:58:40.405Z,18.82
2022-08-02T04:59:42.345Z,18.86
2022-08-02T05:00:44.474Z,18.88
2022-08-02T05:01:46.365Z,18.93
2022-08-02T05:02:48.558Z,18.99
2022-08-02T05:03:50.172Z,19.06
2022-08-02T05:04:51.828Z,19.14
2022-08-02T05:05:53.442Z,19.20
2022-08-02T05:06:55.025Z,19.28
2022-08-02T05:07:56.626Z,19.35
2022-08-02T05:08:58.534Z,19.42
2022-08-02T05:10:00.394Z,19.51
2022-08-02T05:11:04.040Z,19.57
2022-08-02T05:12:06.438Z,19.61
2022-08-02T05:13:08.025Z,19.66
2022-08-02T05:14:09.645Z,19.73
2022-08-02T05:15:18.274Z,19.77
2022-08-02T05:16:20.031Z,19.84
2022-08-02T05:17:32.850Z,19.90
2022-08-02T05:18:34.650Z,19.96
2022-08-02T05:19:36.857Z,20.01
2022-08-02T05:20:38.397Z,20.09
2022-08-02T05:21:39.962Z,20.15
2022-08-02T05:22:42.141Z,19.94
2022-08-02T05:23:43.871Z,20.22
2022-08-02T05:24:45.457Z,20.18
2022-08-02T05:25:47.141Z,20.15
2022-08-02T05:26:48.792Z,20.16
2022-08-02T05:27:50.320Z,20.18
2022-08-02T05:28:51.893Z,20.26
2022-08-02T05:29:57.100Z,20.34
2022-08-02T05:30:58.828Z,20.41
2022-08-02T05:32:00.439Z,20.54
2022-08-02T05:33:02.017Z,20.61
2022-08-02T05:34:04.557Z,20.70
2022-08-02T05:35:08.288Z,20.77
2022-08-02T05:36:09.948Z,20.79
2022-08-02T05:37:11.558Z,20.83
2022-08-02T05:38:15.107Z,20.89
2022-08-02T05:39:19.038Z,20.96
2022-08-02T05:40:25.469Z,21.02
2022-08-02T05:41:27.717Z,21.10
2022-08-02T05:42:32.304Z,21.21
2022-08-02T05:43:34.055Z,21.29
2022-08-02T05:44:35.626Z,21.39
2022-08-02T05:45:37.490Z,21.46
2022-08-02T05:46:39.028Z,21.55
2022-08-02T05:47:40.810Z,21.62
2022-08-02T05:48:42.403Z,21.59
2022-08-02T05:49:44.034Z,21.61
2022-08-02T05:50:49.974Z,21.63
2022-08-02T05:52:19.790Z,21.61
2022-08-02T05:53:51.061Z,21.54
2022-08-02T05:54:55.626Z,21.48
2022-08-02T05:56:37.701Z,21.41
2022-08-02T05:57:56.115Z,21.76
2022-08-02T05:59:09.756Z,21.87
2022-08-02T06:00:14.197Z,21.95
2022-08-02T06:01:25.191Z,22.06
2022-08-02T06:02:39.131Z,22.11
2022-08-02T06:03:51.514Z,22.19
2022-08-02T06:05:04.805Z,22.24
2022-08-02T06:06:11.238Z,22.24
2022-08-02T06:07:14.552Z,22.22
2022-08-02T06:08:16.211Z,22.30
2022-08-02T06:09:23.228Z,22.32
2022-08-02T06:10:30.080Z,22.35
2022-08-02T06:11:42.931Z,22.28
2022-08-02T06:13:04.478Z,22.37
2022-08-02T06:14:07.233Z,22.44
2022-08-02T06:15:09.222Z,22.25
2022-08-02T06:16:14.146Z,22.54
2022-08-02T06:17:17.171Z,22.60
2022-08-02T06:18:20.218Z,22.59
2022-08-02T06:19:31.622Z,22.65
2022-08-02T06:20:50.550Z,22.71
2022-08-02T06:22:34.022Z,22.78
2022-08-02T06:23:14.542Z,22.90
2022-08-02T06:24:19.726Z,22.98
2022-08-02T06:25:50.261Z,23.08
2022-08-02T06:26:44.629Z,23.10
2022-08-02T06:27:48.975Z,23.10
2022-08-02T06:28:53.288Z,23.17
2022-08-02T06:29:55.279Z,23.27
2022-08-02T06:30:57.606Z,23.40
2022-08-02T06:31:59.698Z,23.54
2022-08-02T06:33:01.878Z,23.46
2022-08-02T06:34:03.413Z,23.73
2022-08-02T06:35:05.829Z,23.68
2022-08-02T06:36:19.629Z,23.64
2022-08-02T06:37:41.415Z,23.67
2022-08-02T06:39:14.490Z,23.76
2022-08-02T06:40:44.114Z,23.58
2022-08-02T06:41:49.286Z,23.59
2022-08-02T06:43:10.816Z,23.58
2022-08-02T06:44:45.859Z,23.52
2022-08-02T06:45:35.232Z,23.72
2022-08-02T06:47:11.002Z,23.93
2022-08-02T06:47:59.005Z,24.06
2022-08-02T06:49:01.818Z,24.03
2022-08-02T06:50:04.269Z,24.07
2022-08-02T06:51:06.093Z,24.25
2022-08-02T06:52:07.820Z,24.38
2022-08-02T06:53:10.451Z,24.49
2022-08-02T06:54:12.061Z,24.49
2022-08-02T06:55:13.668Z,24.57
2022-08-02T06:56:15.745Z,24.60
2022-08-02T06:57:17.383Z,24.80
2022-08-02T06:58:19.050Z,25.03
2022-08-02T06:59:20.551Z,24.91
2022-08-02T07:00:22.136Z,24.92
2022-08-02T07:01:23.917Z,25.07
2022-08-02T07:02:25.629Z,25.21
2022-08-02T07:03:27.399Z,25.25
2022-08-02T07:04:29.567Z,25.36
2022-08-02T07:05:31.216Z,25.79
2022-08-02T07:06:32.812Z,26.09
2022-08-02T07:07:34.882Z,26.18
2022-08-02T07:08:38.514Z,26.19
2022-08-02T07:09:40.361Z,26.42
2022-08-02T07:11:02.615Z,26.67
2022-08-02T07:12:04.622Z,26.69
2022-08-02T07:13:06.174Z,27.01
2022-08-02T07:14:07.719Z,26.80
2022-08-02T07:15:10.235Z,27.18
2022-08-02T07:16:11.837Z,27.23
2022-08-02T07:17:13.750Z,27.56
2022-08-02T07:18:15.826Z,27.94
2022-08-02T07:19:17.478Z,27.81
2022-08-02T07:20:19.175Z,27.92
2022-08-02T07:21:55.990Z,27.96
2022-08-02T07:22:42.404Z,28.26
2022-08-02T07:23:43.981Z,28.62
2022-08-02T07:24:45.781Z,29.43
2022-08-02T07:26:02.290Z,29.81
2022-08-02T07:27:11.686Z,30.11
2022-08-02T07:28:22.274Z,30.31
2022-08-02T07:29:26.634Z,30.98
2022-08-02T07:30:34.393Z,31.24
2022-08-02T07:31:36.136Z,31.25
2022-08-02T07:32:38.306Z,31.73
2022-08-02T07:33:42.351Z,32.18
2022-08-02T07:34:50.899Z,32.27
2022-08-02T07:35:57.338Z,32.20
2022-08-02T07:36:59.001Z,32.01
2022-08-02T07:38:02.848Z,31.98
2022-08-02T07:39:06.175Z,32.63
2022-08-02T07:40:14.026Z,32.22
2022-08-02T07:41:16.997Z,32.14
2022-08-02T07:42:18.658Z,31.82
2022-08-02T07:43:22.953Z,31.97
2022-08-02T07:44:24.603Z,32.06
2022-08-02T07:45:28.669Z,32.68
2022-08-02T07:46:30.316Z,32.51
2022-08-02T07:47:31.884Z,31.98
2022-08-02T07:48:33.554Z,31.17
2022-08-02T07:49:35.192Z,31.05
2022-08-02T07:50:36.926Z,31.20
2022-08-02T07:51:38.587Z,31.50
2022-08-02T07:52:40.760Z,31.67
2022-08-02T07:53:51.200Z,32.41
2022-08-02T07:55:05.022Z,33.18
2022-08-02T07:56:06.665Z,33.88
2022-08-02T07:57:08.301Z,33.71
2022-08-02T07:58:12.973Z,34.04
2022-08-02T07:59:15.388Z,34.20
2022-08-02T08:00:17.664Z,33.98
2022-08-02T08:01:19.605Z,33.98
2022-08-02T08:02:21.277Z,34.18
2022-08-02T08:03:23.016Z,33.68
2022-08-02T08:04:24.978Z,33.58
2022-08-02T08:05:26.651Z,33.82
2022-08-02T08:06:29.218Z,33.68
2022-08-02T08:07:31.119Z,32.89
2022-08-02T08:08:35.037Z,33.73
2022-08-02T08:09:42.520Z,34.38
2022-08-02T08:10:44.158Z,34.41
2022-08-02T08:11:45.917Z,34.17
2022-08-02T08:12:47.470Z,34.58
2022-08-02T08:13:49.075Z,34.16
2022-08-02T08:14:50.781Z,34.62
2022-08-02T08:15:52.785Z,35.39
2022-08-02T08:16:54.414Z,35.99
2022-08-02T08:17:56.095Z,36.07
2022-08-02T08:18:57.681Z,35.96
2022-08-02T08:19:59.306Z,35.84
2022-08-02T08:21:00.951Z,35.69
2022-08-02T08:22:06.061Z,34.60
2022-08-02T08:23:07.641Z,32.06
2022-08-02T08:24:09.278Z,32.13
2022-08-02T08:25:10.914Z,32.96
2022-08-02T08:26:15.795Z,33.44
2022-08-02T08:27:18.588Z,34.43
2022-08-02T08:28:20.273Z,35.01
2022-08-02T08:29:22.482Z,34.59
2022-08-02T08:30:24.416Z,34.53
2022-08-02T08:31:26.167Z,34.64
2022-08-02T08:32:28.833Z,35.00
2022-08-02T08:33:30.457Z,35.46
2022-08-02T08:34:32.566Z,35.05
2022-08-02T08:35:34.747Z,34.80
2022-08-02T08:36:36.486Z,34.81
2022-08-02T08:37:39.218Z,35.30
2022-08-02T08:38:40.739Z,35.11
2022-08-02T08:39:56.312Z,34.02
2022-08-02T08:40:59.375Z,35.00
2022-08-02T08:42:01.314Z,35.35
2022-08-02T08:43:03.930Z,35.74
2022-08-02T08:44:05.609Z,35.81
2022-08-02T08:45:09.032Z,35.32
2022-08-02T08:46:12.381Z,34.94
2022-08-02T08:47:14.012Z,34.73
2022-08-02T08:48:30.264Z,34.61
2022-08-02T08:49:40.143Z,34.75
2022-08-02T08:51:04.504Z,35.57
2022-08-02T08:52:06.604Z,36.33
2022-08-02T08:53:12.352Z,36.12
2022-08-02T08:54:17.271Z,36.66
2022-08-02T08:55:24.738Z,36.27
2022-08-02T08:56:32.051Z,35.95
2022-08-02T08:57:37.144Z,36.02
2022-08-02T08:58:39.704Z,36.24
2022-08-02T08:59:41.301Z,36.83
2022-08-02T09:00:43.156Z,35.77
2022-08-02T09:01:49.971Z,35.41
2022-08-02T09:02:52.506Z,36.01
2022-08-02T09:03:54.143Z,36.55
2022-08-02T09:04:56.474Z,36.69
2022-08-02T09:05:58.935Z,36.29
2022-08-02T09:07:00.487Z,36.19
2022-08-02T09:08:02.082Z,36.01
2022-08-02T09:09:03.716Z,35.99
2022-08-02T09:10:40.672Z,36.62
2022-08-02T09:11:42.267Z,36.83
2022-08-02T09:12:43.833Z,37.20
2022-08-02T09:13:55.002Z,37.41
2022-08-02T09:14:56.617Z,36.72
2022-08-02T09:16:11.498Z,35.94
2022-08-02T09:17:15.162Z,35.84
2022-08-02T09:18:16.716Z,35.65
2022-08-02T09:19:25.452Z,36.07
2022-08-02T09:20:30.648Z,36.24
2022-08-02T09:21:37.949Z,36.93
2022-08-02T09:22:39.526Z,37.09
2022-08-02T09:23:43.272Z,37.54
2022-08-02T09:24:50.005Z,36.47
2022-08-02T09:26:07.495Z,36.66
2022-08-02T09:27:21.365Z,37.26
2022-08-02T09:28:27.609Z,36.93
2022-08-02T09:29:29.220Z,37.54
2022-08-02T09:30:31.658Z,36.92
2022-08-02T09:31:34.380Z,37.08
2022-08-02T09:32:46.474Z,36.94
2022-08-02T09:33:56.447Z,37.17
2022-08-02T09:34:58.033Z,37.53
2022-08-02T09:36:08.118Z,37.35
2022-08-02T09:37:23.243Z,37.22
2022-08-02T09:38:26.344Z,37.29
2022-08-02T09:39:47.480Z,37.21
2022-08-02T09:40:49.645Z,37.63
2022-08-02T09:41:51.337Z,37.81
2022-08-02T09:42:59.385Z,37.51
2022-08-02T09:44:06.162Z,37.19
2022-08-02T09:45:10.245Z,37.46
2022-08-02T09:46:16.277Z,37.38
2022-08-02T09:47:18.095Z,36.15
2022-08-02T09:48:19.683Z,34.46
2022-08-02T09:49:21.824Z,34.98
2022-08-02T09:50:23.470Z,35.26
2022-08-02T09:51:57.755Z,35.67
2022-08-02T09:52:59.558Z,36.33
2022-08-02T09:54:08.926Z,36.50
2022-08-02T09:55:11.883Z,36.85
2022-08-02T09:56:35.338Z,36.96
2022-08-02T09:57:38.537Z,37.30
2022-08-02T09:58:40.409Z,37.75
2022-08-02T09:59:52.514Z,37.09
2022-08-02T10:01:01.561Z,37.12
2022-08-02T10:02:17.027Z,37.38
2022-08-02T10:03:22.625Z,37.19
2022-08-02T10:04:28.524Z,37.21
2022-08-02T10:05:32.178Z,37.54
2022-08-02T10:06:46.370Z,37.70
2022-08-02T10:07:48.066Z,37.94
2022-08-02T10:08:50.612Z,37.56
2022-08-02T10:09:52.292Z,37.84
2022-08-02T10:11:00.527Z,38.16
2022-08-02T10:12:03.469Z,37.92
2022-08-02T10:13:10.734Z,38.02
2022-08-02T10:14:12.819Z,38.00
2022-08-02T10:15:16.344Z,38.48
2022-08-02T10:16:21.901Z,38.64
2022-08-02T10:17:25.270Z,38.42
2022-08-02T10:18:38.709Z,38.21
2022-08-02T10:20:02.754Z,38.32
2022-08-02T10:21:06.530Z,39.12
2022-08-02T10:22:14.662Z,38.66
2022-08-02T10:23:17.351Z,38.04
2022-08-02T10:24:22.527Z,37.81
2022-08-02T10:25:24.665Z,38.18
2022-08-02T10:26:26.525Z,38.37
2022-08-02T10:27:43.207Z,38.74
2022-08-02T10:28:53.966Z,38.15
2022-08-02T10:29:57.821Z,35.92
2022-08-02T10:31:05.588Z,33.85
2022-08-02T10:32:15.465Z,33.60
2022-08-02T10:33:19.280Z,33.67
2022-08-02T10:34:24.832Z,34.21
2022-08-02T10:35:37.550Z,35.24
2022-08-02T10:36:42.141Z,36.23
2022-08-02T10:37:46.086Z,36.56
2022-08-02T10:38:47.904Z,36.67
2022-08-02T10:39:55.997Z,36.96
2022-08-02T10:40:57.575Z,37.04
2022-08-02T10:41:59.180Z,36.96
2022-08-02T10:43:01.410Z,37.09
2022-08-02T10:44:03.355Z,37.38
2022-08-02T10:45:14.985Z,37.67
2022-08-02T10:46:35.798Z,37.97
2022-08-02T10:47:37.566Z,37.78
2022-08-02T10:49:18.467Z,37.67
2022-08-02T10:50:53.006Z,37.43
2022-08-02T10:51:54.540Z,37.06
2022-08-02T10:53:32.480Z,36.78
2022-08-02T10:54:42.694Z,37.09
2022-08-02T10:55:45.998Z,37.24
2022-08-02T10:56:50.198Z,37.57
2022-08-02T10:58:19.278Z,37.99
2022-08-02T10:59:24.185Z,37.75
2022-08-02T11:00:27.476Z,38.34
2022-08-02T11:01:38.953Z,38.40
2022-08-02T11:02:43.990Z,39.11
2022-08-02T11:03:45.557Z,38.53
2022-08-02T11:04:47.064Z,37.95
2022-08-02T11:06:05.410Z,37.10
2022-08-02T11:07:20.049Z,38.27
2022-08-02T11:08:23.026Z,38.46
2022-08-02T11:09:32.718Z,38.48
2022-08-02T11:10:39.936Z,38.68
2022-08-02T11:12:09.553Z,39.32
2022-08-02T11:13:16.765Z,39.42
2022-08-02T11:14:18.654Z,39.89
2022-08-02T11:15:20.372Z,40.08
2022-08-02T11:16:21.931Z,40.50
2022-08-02T11:17:23.756Z,40.60
2022-08-02T11:18:51.460Z,40.72
2022-08-02T11:20:11.482Z,40.05
2022-08-02T11:21:23.709Z,40.31
2022-08-02T11:22:25.842Z,39.99
2022-08-02T11:23:44.170Z,39.61
2022-08-02T11:24:47.479Z,39.95
2022-08-02T11:26:10.851Z,40.18
2022-08-02T11:27:21.965Z,40.69
2022-08-02T11:28:25.631Z,40.52
2022-08-02T11:29:40.107Z,38.78
2022-08-02T11:30:42.072Z,39.93
2022-08-02T11:31:45.555Z,40.81
2022-08-02T11:32:48.245Z,40.94
2022-08-02T11:33:50.999Z,41.32
2022-08-02T11:34:54.163Z,41.41
2022-08-02T11:36:01.844Z,40.95
2022-08-02T11:37:03.582Z,39.88
2022-08-02T11:38:21.205Z,38.80
2022-08-02T11:39:23.572Z,37.87
2022-08-02T11:40:37.568Z,37.53
2022-08-02T11:41:46.901Z,37.93
2022-08-02T11:42:53.634Z,38.37
2022-08-02T11:43:56.034Z,38.71
2022-08-02T11:44:57.664Z,39.16
2022-08-02T11:46:12.256Z,39.86
2022-08-02T11:47:14.178Z,40.41
2022-08-02T11:48:30.102Z,40.46
2022-08-02T11:49:31.918Z,40.33
2022-08-02T11:50:33.609Z,40.31
2022-08-02T11:51:35.159Z,40.89
2022-08-02T11:52:38.535Z,41.18
2022-08-02T11:53:53.477Z,40.92
2022-08-02T11:54:55.043Z,40.50
2022-08-02T11:55:57.207Z,40.42
2022-08-02T11:57:20.593Z,39.61
2022-08-02T11:58:22.699Z,39.96
2022-08-02T11:59:24.251Z,40.01
2022-08-02T12:00:30.533Z,40.44
2022-08-02T12:01:33.687Z,40.51
2022-08-02T12:02:48.648Z,40.11
2022-08-02T12:03:50.595Z,39.97
2022-08-02T12:05:00.726Z,39.35
2022-08-02T12:06:06.801Z,39.72
2022-08-02T12:07:12.708Z,39.35
2022-08-02T12:08:17.060Z,37.53
2022-08-02T12:09:20.818Z,37.91
2022-08-02T12:10:24.277Z,38.75
2022-08-02T12:11:25.915Z,39.13
2022-08-02T12:12:58.934Z,39.76
2022-08-02T12:14:00.998Z,39.92
2022-08-02T12:15:02.743Z,39.78
2022-08-02T12:16:30.764Z,40.02
2022-08-02T12:17:51.077Z,40.18
2022-08-02T12:19:11.696Z,40.34
2022-08-02T12:20:17.388Z,40.57
2022-08-02T12:21:25.008Z,40.50
2022-08-02T12:22:27.906Z,40.18
2022-08-02T12:23:30.222Z,40.31
2022-08-02T12:24:31.836Z,40.25
2022-08-02T12:25:35.537Z,40.04
2022-08-02T12:26:45.268Z,39.03
2022-08-02T12:27:46.956Z,39.05
2022-08-02T12:28:59.731Z,39.45
2022-08-02T12:30:13.247Z,39.46
2022-08-02T12:31:14.849Z,39.79
2022-08-02T12:32:24.615Z,40.28
2022-08-02T12:33:29.179Z,40.68
2022-08-02T12:34:32.770Z,41.02
2022-08-02T12:35:34.450Z,40.87
2022-08-02T12:36:36.115Z,41.06
2022-08-02T12:37:49.796Z,40.82
2022-08-02T12:38:58.380Z,40.98
2022-08-02T12:40:25.915Z,41.62
2022-08-02T12:41:31.129Z,41.44
2022-08-02T12:43:06.160Z,41.44
2022-08-02T12:44:16.258Z,41.31
2022-08-02T12:45:21.725Z,39.94
2022-08-02T12:46:24.706Z,39.98
2022-08-02T12:47:31.277Z,39.51
2022-08-02T12:48:56.619Z,38.40
2022-08-02T12:50:20.520Z,38.67
2022-08-02T12:51:56.714Z,39.22
2022-08-02T12:53:05.339Z,37.99
2022-08-02T12:54:38.815Z,36.35
2022-08-02T12:55:59.246Z,36.85
2022-08-02T12:57:15.513Z,38.16
2022-08-02T12:58:17.747Z,38.67
2022-08-02T12:59:39.079Z,39.23
2022-08-02T13:00:41.215Z,39.86
2022-08-02T13:01:43.538Z,40.41
2022-08-02T13:02:45.178Z,40.77
2022-08-02T13:04:09.316Z,40.93
2022-08-02T13:05:11.322Z,40.96
2022-08-02T13:06:41.864Z,41.06
2022-08-02T13:07:34.569Z,41.50
2022-08-02T13:08:38.972Z,41.57
2022-08-02T13:09:44.935Z,41.45
2022-08-02T13:10:46.564Z,41.42
2022-08-02T13:11:48.765Z,41.11
2022-08-02T13:12:51.523Z,40.84
2022-08-02T13:13:53.331Z,40.23
2022-08-02T13:14:54.934Z,39.36
2022-08-02T13:15:56.496Z,38.76
2022-08-02T13:17:00.967Z,38.82
2022-08-02T13:18:02.742Z,38.68
2022-08-02T13:19:04.640Z,38.10
2022-08-02T13:20:07.705Z,37.24
2022-08-02T13:21:23.518Z,37.08
2022-08-02T13:22:34.771Z,37.18
2022-08-02T13:23:54.859Z,37.40
2022-08-02T13:24:57.179Z,37.97
2022-08-02T13:25:58.934Z,37.69
2022-08-02T13:27:08.323Z,37.84
2022-08-02T13:28:11.221Z,38.45
2022-08-02T13:29:12.874Z,38.79
2022-08-02T13:30:14.641Z,38.67
2022-08-02T13:31:36.170Z,38.63
2022-08-02T13:32:37.890Z,38.72
2022-08-02T13:33:39.495Z,39.31
2022-08-02T13:34:41.162Z,39.53
2022-08-02T13:35:44.315Z,39.75
2022-08-02T13:36:45.877Z,39.84
2022-08-02T13:37:48.091Z,39.64
2022-08-02T13:38:49.713Z,39.57
2022-08-02T13:40:18.665Z,39.27
2022-08-02T13:41:22.699Z,39.20
2022-08-02T13:42:24.483Z,39.51
2022-08-02T13:43:26.867Z,39.74
2022-08-02T13:44:48.887Z,39.75
2022-08-02T13:45:50.803Z,40.27
2022-08-02T13:46:52.425Z,40.83
2022-08-02T13:48:03.811Z,40.48
2022-08-02T13:49:07.315Z,39.93
2022-08-02T13:50:09.229Z,39.73
2022-08-02T13:51:14.948Z,39.45
2022-08-02T13:52:17.091Z,39.49
2022-08-02T13:53:19.005Z,39.69
2022-08-02T13:54:20.638Z,39.79
2022-08-02T13:55:22.215Z,39.89
2022-08-02T13:56:35.218Z,40.01
2022-08-02T13:57:37.639Z,40.33
2022-08-02T13:58:39.212Z,39.97
2022-08-02T13:59:57.262Z,39.47
2022-08-02T14:01:00.707Z,39.56
2022-08-02T14:02:02.755Z,39.43
2022-08-02T14:03:06.222Z,39.84
2022-08-02T14:04:09.594Z,40.03
2022-08-02T14:05:11.310Z,40.46
2022-08-02T14:06:12.977Z,40.80
2022-08-02T14:07:15.988Z,41.14
2022-08-02T14:08:19.135Z,41.11
2022-08-02T14:09:20.862Z,41.08
2022-08-02T14:10:22.763Z,41.21
2022-08-02T14:11:24.298Z,41.16
2022-08-02T14:12:25.930Z,40.86
2022-08-02T14:13:27.761Z,39.78